Time;durP1;ratioP1;P1;durP2;ratioP2;P2;SDS_P1;SDS_P2;PMS_P1;PMS_P2;Temp;Humidity;BMP_temperature;BMP_pressure;BME280_temperature;BME280_humidity;BME280_pressure;Samples;Min_cycle;Max_cycle;Signal;HPM_P1;HPM_P2
2022/10/22 00:02:14;;;;;;;1.20;1.10;;;12.20;99.90;;;;;;4877276;29;20113;-79
2022/10/22 00:04:40;;;;;;;1.30;1.20;;;12.80;99.90;;;;;;4852266;29;20112;-79
2022/10/22 00:07:06;;;;;;;1.15;1.05;;;12.40;99.90;;;;;;4874452;29;20049;-78
2022/10/22 00:09:32;;;;;;;1.98;1.00;;;12.50;99.90;;;;;;4874519;29;20482;-79
2022/10/22 00:11:57;;;;;;;1.50;1.00;;;12.60;99.90;;;;;;4875223;29;20411;-79
2022/10/22 00:14:23;;;;;;;1.45;1.20;;;12.10;99.90;;;;;;4874449;29;20404;-78
2022/10/22 00:16:49;;;;;;;1.45;1.17;;;12.20;99.90;;;;;;4875021;29;20055;-78
2022/10/22 00:19:14;;;;;;;1.48;1.27;;;12.40;99.90;;;;;;4863134;29;20045;-79
2022/10/22 00:21:40;;;;;;;1.23;1.00;;;12.40;99.90;;;;;;4841033;29;20072;-79
2022/10/22 00:24:06;;;;;;;2.13;1.20;;;12.20;99.90;;;;;;4856921;29;20057;-79
2022/10/22 00:26:32;;;;;;;1.10;1.00;;;12.00;99.90;;;;;;4856609;29;20049;-79
2022/10/22 00:28:57;;;;;;;1.35;1.00;;;12.30;99.90;;;;;;4859776;29;20100;-79
2022/10/22 00:31:23;;;;;;;1.23;1.00;;;12.00;99.90;;;;;;4860033;29;20049;-78
2022/10/22 00:33:49;;;;;;;1.83;1.08;;;12.70;99.90;;;;;;4872407;29;20053;-78
2022/10/22 00:36:15;;;;;;;1.17;1.05;;;12.70;99.90;;;;;;4856323;29;20116;-79
2022/10/22 00:38:41;;;;;;;;;;;12.20;99.90;;;;;;4856587;29;20062;-78
2022/10/22 00:41:07;;;;;;;1.00;0.90;;;12.70;99.90;;;;;;4840659;29;19931;-77
2022/10/22 00:43:33;;;;;;;2.08;1.20;;;12.70;99.90;;;;;;4857087;29;20049;-78
2022/10/22 00:45:58;;;;;;;;;;;12.30;99.90;;;;;;4844519;29;20414;-78
2022/10/22 00:48:27;;;;;;;1.15;1.05;;;12.50;99.90;;;;;;4844247;29;19935;-78
2022/10/22 00:50:59;;;;;;;1.40;1.30;;;12.10;99.90;;;;;;4859227;29;20087;-78
2022/10/22 00:53:33;;;;;;;1.10;0.88;;;12.70;99.90;;;;;;4843969;29;20136;-78
2022/10/22 00:56:00;;;;;;;2.65;1.27;;;12.50;99.90;;;;;;4843937;29;20084;-78
2022/10/22 00:58:29;;;;;;;1.38;1.10;;;12.70;99.90;;;;;;4872122;29;20101;-78
2022/10/22 01:00:56;;;;;;;1.33;1.00;;;12.40;99.90;;;;;;4877562;29;20056;-78
2022/10/22 01:03:22;;;;;;;;;;;12.30;99.90;;;;;;4866078;29;20045;-78
2022/10/22 01:05:55;;;;;;;1.65;1.08;;;12.50;99.90;;;;;;4843877;29;20289;-78
2022/10/22 01:08:50;;;;;;;1.17;0.90;;;11.80;99.90;;;;;;4843744;29;20058;-78
2022/10/22 01:11:40;;;;;;;1.23;1.00;;;11.80;99.90;;;;;;4843828;29;20545;-79
2022/10/22 01:14:50;;;;;;;0.90;0.80;;;11.80;99.90;;;;;;4859270;29;20144;-79
2022/10/22 01:17:35;;;;;;;1.50;1.05;;;12.40;99.90;;;;;;4852552;29;20053;-79
2022/10/22 01:20:15;;;;;;;1.10;1.00;;;11.80;99.90;;;;;;4843659;29;20060;-79
2022/10/22 01:22:51;;;;;;;1.58;1.17;;;11.90;99.90;;;;;;4859181;29;20052;-79
2022/10/22 01:25:41;;;;;;;2.75;1.20;;;12.30;99.90;;;;;;4862445;29;20392;-79
2022/10/22 01:28:37;;;;;;;1.33;1.10;;;12.20;99.90;;;;;;4878050;29;20052;-79
2022/10/22 01:31:04;;;;;;;1.10;1.00;;;12.80;99.90;;;;;;4857854;29;20050;-79
2022/10/22 01:33:31;;;;;;;2.17;0.85;;;11.80;99.90;;;;;;4884968;29;20401;-79
2022/10/22 01:35:58;;;;;;;1.35;0.93;;;12.00;99.90;;;;;;4861639;29;20077;-79
2022/10/22 01:38:25;;;;;;;1.50;1.05;;;11.80;99.90;;;;;;4861995;29;20052;-79
2022/10/22 01:40:51;;;;;;;1.08;0.98;;;12.70;99.90;;;;;;4877159;29;20091;-79
2022/10/22 01:43:17;;;;;;;1.45;1.15;;;11.90;99.90;;;;;;4861754;29;20505;-79
2022/10/22 01:45:46;;;;;;;;;;;12.10;99.90;;;;;;4877568;29;20060;-79
2022/10/22 01:48:22;;;;;;;1.27;1.00;;;11.90;99.90;;;;;;4875567;29;19924;-79
2022/10/22 01:51:04;;;;;;;1.10;0.90;;;12.20;99.90;;;;;;4877017;29;20044;-79
2022/10/22 01:53:51;;;;;;;1.15;1.05;;;12.60;99.90;;;;;;4876902;29;20596;-79
2022/10/22 01:56:35;;;;;;;1.00;0.90;;;12.50;99.90;;;;;;4875678;29;20059;-79
2022/10/22 01:59:23;;;;;;;1.92;1.20;;;11.90;99.90;;;;;;4877198;29;20056;-79
2022/10/22 02:02:01;;;;;;;1.23;1.00;;;11.90;99.90;;;;;;4876111;29;20090;-79
2022/10/22 02:04:42;;;;;;;1.23;1.10;;;11.90;99.90;;;;;;4858201;29;20060;-79
2022/10/22 02:07:11;;;;;;;1.65;1.30;;;12.70;99.90;;;;;;4859274;29;20105;-79
2022/10/22 02:09:38;;;;;;;1.48;1.17;;;11.90;99.90;;;;;;4842736;29;20081;-79
2022/10/22 02:12:07;;;;;;;1.85;1.40;;;12.90;99.90;;;;;;4857864;29;20054;-79
2022/10/22 02:14:35;;;;;;;1.45;1.20;;;11.90;99.90;;;;;;4858125;29;20052;-79
2022/10/22 02:17:02;;;;;;;1.00;0.80;;;12.40;99.90;;;;;;4858652;29;20067;-79
2022/10/22 02:19:42;;;;;;;;;;;12.90;99.90;;;;;;4875647;29;20045;-78
2022/10/22 02:22:09;;;;;;;1.00;0.90;;;11.90;99.90;;;;;;4876209;29;19979;-79
2022/10/22 02:24:34;;;;;;;;;;;12.90;99.90;;;;;;4876233;29;20045;-79
2022/10/22 02:27:26;;;;;;;1.30;1.13;;;12.70;99.90;;;;;;4875845;29;19928;-78
2022/10/22 02:30:18;;;;;;;1.10;1.00;;;12.10;99.90;;;;;;4875672;29;20099;-78
2022/10/22 02:32:54;;;;;;;1.58;1.15;;;12.80;99.90;;;;;;4876389;29;20045;-79
2022/10/22 02:35:24;;;;;;;2.05;1.30;;;12.00;99.90;;;;;;4873809;29;20084;-79
2022/10/22 02:37:52;;;;;;;1.73;1.52;;;12.10;99.90;;;;;;4876065;29;20048;-78
2022/10/22 02:40:18;;;;;;;1.50;1.17;;;12.30;99.90;;;;;;4875891;29;20052;-79
2022/10/22 02:42:47;;;;;;;1.30;1.00;;;12.00;99.90;;;;;;4860623;29;20049;-78
2022/10/22 02:45:13;;;;;;;1.00;0.90;;;12.30;99.90;;;;;;4876153;29;20083;-79
2022/10/22 02:47:39;;;;;;;;;;;12.10;99.90;;;;;;4860570;29;20105;-78
2022/10/22 02:50:05;;;;;;;1.65;1.10;;;12.10;99.90;;;;;;4859674;29;19919;-79
2022/10/22 02:52:31;;;;;;;1.10;1.00;;;12.30;99.90;;;;;;4860708;29;20067;-79
2022/10/22 02:54:56;;;;;;;1.20;1.02;;;12.10;99.90;;;;;;4875976;29;20449;-79
2022/10/22 02:57:22;;;;;;;1.25;0.85;;;12.20;99.90;;;;;;4875097;29;20059;-78
2022/10/22 02:59:48;;;;;;;2.30;1.20;;;12.40;99.90;;;;;;4876069;29;20049;-79
2022/10/22 03:02:13;;;;;;;1.70;1.42;;;12.20;99.90;;;;;;4875891;29;20163;-79
2022/10/22 03:04:39;;;;;;;1.45;1.30;;;12.20;99.90;;;;;;4876009;29;20041;-78
2022/10/22 03:07:05;;;;;;;1.70;1.15;;;12.50;99.90;;;;;;4874532;29;20457;-79
2022/10/22 03:09:30;;;;;;;1.65;1.30;;;12.70;99.90;;;;;;4875697;29;20370;-79
2022/10/22 03:11:56;;;;;;;1.52;1.33;;;12.20;99.90;;;;;;4876005;29;20033;-79
2022/10/22 03:14:22;;;;;;;1.90;1.50;;;12.80;99.90;;;;;;4860422;29;20499;-78
2022/10/22 03:16:47;;;;;;;1.77;1.33;;;13.10;99.90;;;;;;4860242;29;20132;-80
2022/10/22 03:19:13;;;;;;;1.52;1.38;;;13.20;99.90;;;;;;4860658;29;20041;-79
2022/10/22 03:21:52;;;;;;;1.85;1.38;;;13.00;99.90;;;;;;4874744;29;20056;-79
2022/10/22 03:24:30;;;;;;;1.88;1.10;;;12.70;99.90;;;;;;4875734;29;20120;-79
2022/10/22 03:26:56;;;;;;;1.45;1.17;;;13.10;99.90;;;;;;4875622;29;20045;-79
2022/10/22 03:29:24;;;;;;;1.25;1.10;;;12.10;99.90;;;;;;4875019;29;20124;-78
2022/10/22 03:31:51;;;;;;;2.05;1.35;;;12.40;99.90;;;;;;4875818;29;20454;-79
2022/10/22 03:34:16;;;;;;;1.65;1.25;;;12.20;99.90;;;;;;4866233;29;20085;-78
2022/10/22 03:36:42;;;;;;;2.00;1.52;;;13.00;99.90;;;;;;4885457;29;20132;-78
2022/10/22 03:39:09;;;;;;;2.60;1.70;;;12.70;99.90;;;;;;4882827;29;20401;-78
2022/10/22 03:41:35;;;;;;;2.00;1.50;;;12.30;99.90;;;;;;4886525;29;20061;-80
2022/10/22 03:44:01;;;;;;;;;;;12.00;99.90;;;;;;4889608;29;20076;-79
2022/10/22 03:46:27;;;;;;;2.60;1.40;;;12.30;99.90;;;;;;4887627;29;19931;-77
2022/10/22 03:48:53;;;;;;;1.70;1.30;;;12.90;99.90;;;;;;4862926;29;20128;-79
2022/10/22 03:51:18;;;;;;;1.98;1.35;;;12.00;99.90;;;;;;4864959;29;20041;-78
2022/10/22 03:53:44;;;;;;;1.52;1.23;;;12.80;99.90;;;;;;4866253;29;20098;-78
2022/10/22 03:56:11;;;;;;;2.35;1.23;;;12.10;99.90;;;;;;4877739;29;20062;-79
2022/10/22 03:58:39;;;;;;;1.27;1.13;;;12.50;99.90;;;;;;4876210;29;20342;-79
2022/10/22 04:01:06;;;;;;;1.50;1.20;;;12.40;99.90;;;;;;4876069;29;20520;-79
2022/10/22 04:03:31;;;;;;;1.58;1.40;;;12.40;99.90;;;;;;4876143;29;20374;-79
2022/10/22 04:06:07;;;;;;;1.73;1.52;;;12.90;99.90;;;;;;4859435;29;20053;-79
2022/10/22 04:08:34;;;;;;;2.67;1.65;;;12.90;99.90;;;;;;4841487;29;20041;-79
2022/10/22 04:10:59;;;;;;;1.95;1.30;;;12.80;99.90;;;;;;4856980;29;20397;-79
2022/10/22 04:13:25;;;;;;;1.90;1.30;;;12.70;99.90;;;;;;4856558;29;20057;-79
2022/10/22 04:15:52;;;;;;;1.48;1.27;;;12.90;99.90;;;;;;4856475;29;20049;-78
2022/10/22 04:18:18;;;;;;;;;;;12.20;99.90;;;;;;4848024;29;20051;-78
2022/10/22 04:20:44;;;;;;;2.83;1.55;;;12.80;99.90;;;;;;4878532;29;19927;-78
2022/10/22 04:23:09;;;;;;;2.33;1.73;;;12.10;99.90;;;;;;4863282;29;20052;-79
2022/10/22 04:25:35;;;;;;;3.00;1.83;;;12.80;99.90;;;;;;4878507;29;20108;-80
2022/10/22 04:28:00;;;;;;;2.35;1.83;;;12.40;99.90;;;;;;4878523;29;20539;-78
2022/10/22 04:30:26;;;;;;;3.85;1.70;;;12.30;99.90;;;;;;4863123;29;20438;-79
2022/10/22 04:32:52;;;;;;;2.35;1.85;;;11.90;99.90;;;;;;4878629;29;20075;-79
2022/10/22 04:35:18;;;;;;;3.05;1.90;;;12.90;99.90;;;;;;4860812;29;20045;-79
2022/10/22 04:37:43;;;;;;;2.47;1.83;;;12.70;99.90;;;;;;4870008;29;20120;-79
2022/10/22 04:40:10;;;;;;;3.35;2.10;;;12.50;99.90;;;;;;4878411;29;20044;-79
2022/10/22 04:42:36;;;;;;;2.53;1.92;;;11.90;99.90;;;;;;4862252;29;20400;-79
2022/10/22 04:45:01;;;;;;;3.20;1.77;;;12.00;99.90;;;;;;4847366;29;20068;-79
2022/10/22 04:47:27;;;;;;;2.17;1.75;;;12.00;99.90;;;;;;4847345;29;20049;-79
2022/10/22 04:49:53;;;;;;;2.22;1.60;;;12.80;99.90;;;;;;4861675;29;20053;-79
2022/10/22 04:52:18;;;;;;;2.63;2.15;;;12.40;99.90;;;;;;4862589;29;20148;-79
2022/10/22 04:54:44;;;;;;;2.70;1.90;;;12.80;99.90;;;;;;4878416;29;20052;-79
2022/10/22 04:57:09;;;;;;;2.33;1.70;;;12.60;99.90;;;;;;4878293;29;20048;-79
2022/10/22 04:59:35;;;;;;;3.70;2.08;;;11.90;99.90;;;;;;4878021;29;20127;-79
2022/10/22 05:02:01;;;;;;;3.55;1.83;;;12.80;99.90;;;;;;4877832;29;20045;-79
2022/10/22 05:04:26;;;;;;;2.85;2.08;;;11.90;99.90;;;;;;4868051;29;20045;-79
2022/10/22 05:06:52;;;;;;;2.03;1.40;;;11.90;99.90;;;;;;4844020;29;20045;-79
2022/10/22 05:09:20;;;;;;;2.67;1.50;;;12.70;99.90;;;;;;4862734;29;20041;-78
2022/10/22 05:11:47;;;;;;;2.00;1.52;;;12.80;99.90;;;;;;4877677;29;20048;-79
2022/10/22 05:14:16;;;;;;;1.52;1.35;;;12.80;99.90;;;;;;4877703;29;20397;-78
2022/10/22 05:16:42;;;;;;;1.98;1.58;;;11.90;99.90;;;;;;4877602;29;20056;-79
2022/10/22 05:19:13;;;;;;;2.58;1.80;;;12.20;99.90;;;;;;4877093;29;20104;-78
2022/10/22 05:21:39;;;;;;;3.28;1.90;;;12.60;99.90;;;;;;4877373;29;20049;-79
2022/10/22 05:24:05;;;;;;;1.90;1.60;;;11.80;99.90;;;;;;4877838;29;20397;-79
2022/10/22 05:26:30;;;;;;;1.75;1.48;;;11.90;99.90;;;;;;4876835;29;20130;-79
2022/10/22 05:28:56;;;;;;;2.33;1.50;;;11.90;99.90;;;;;;4846021;29;20049;-79
2022/10/22 05:31:22;;;;;;;2.15;1.80;;;12.70;99.90;;;;;;4873906;29;20080;-79
2022/10/22 05:33:47;;;;;;;1.95;1.63;;;12.70;99.90;;;;;;4875655;29;20041;-79
2022/10/22 05:36:18;;;;;;;2.10;1.50;;;11.80;99.90;;;;;;4874683;29;20052;-79
2022/10/22 05:38:44;;;;;;;1.65;1.23;;;12.50;99.90;;;;;;4873651;29;20045;-78
2022/10/22 05:41:14;;;;;;;2.22;1.50;;;11.80;99.90;;;;;;4873917;29;20548;-79
2022/10/22 05:43:40;;;;;;;1.95;1.45;;;12.50;99.90;;;;;;4877123;29;20063;-79
2022/10/22 05:46:12;;;;;;;1.85;1.50;;;11.80;99.90;;;;;;4866433;29;20061;-79
2022/10/22 05:48:38;;;;;;;2.63;1.60;;;11.90;99.90;;;;;;4861698;29;20046;-80
2022/10/22 05:51:05;;;;;;;;;;;12.00;99.90;;;;;;4857846;29;20380;-80
2022/10/22 05:53:35;;;;;;;1.80;1.40;;;11.90;99.90;;;;;;4875287;29;20368;-80
2022/10/22 05:56:07;;;;;;;1.83;1.60;;;11.80;99.90;;;;;;4827834;29;20088;-78
2022/10/22 05:58:33;;;;;;;1.77;1.35;;;12.70;99.90;;;;;;4858573;29;20045;-80
2022/10/22 06:01:22;;;;;;;1.67;1.38;;;12.10;99.90;;;;;;4870509;29;20137;-80
2022/10/22 08:37:55;;;;;;;2.88;1.52;;;13.80;99.90;;;;;;5449590;23;20387;-78
2022/10/22 08:43:35;;;;;;;1.70;1.30;;;14.10;99.90;;;;;;4919740;23;20052;-72
2022/10/22 08:46:00;;;;;;;3.05;1.80;;;14.50;99.90;;;;;;4896607;29;20048;-72
2022/10/22 08:48:46;;;;;;;3.15;1.58;;;14.60;99.90;;;;;;4897835;29;20044;-72
2022/10/22 08:51:17;;;;;;;4.30;1.98;;;14.70;99.90;;;;;;4919371;29;20044;-73
2022/10/22 08:54:14;;;;;;;3.38;1.80;;;14.40;99.90;;;;;;4903357;29;20048;-72
2022/10/22 08:56:47;;;;;;;3.53;2.10;;;14.20;99.90;;;;;;4926873;29;20044;-74
2022/10/22 08:59:26;;;;;;;3.63;2.00;;;14.80;99.90;;;;;;4887137;29;20047;-72
2022/10/22 09:01:53;;;;;;;3.42;1.92;;;14.40;99.90;;;;;;4925038;29;20044;-72
2022/10/22 09:04:29;;;;;;;3.63;1.85;;;14.30;99.90;;;;;;4877242;29;20167;-73
2022/10/22 09:06:57;;;;;;;3.97;1.70;;;14.50;99.90;;;;;;4906069;29;20131;-73
2022/10/22 09:09:28;;;;;;;3.45;1.73;;;15.00;99.90;;;;;;4914790;29;20170;-74
2022/10/22 09:11:57;;;;;;;4.95;1.80;;;15.00;99.90;;;;;;4883282;29;20447;-73
2022/10/22 09:14:25;;;;;;;4.55;1.90;;;15.20;99.90;;;;;;4896412;29;20123;-74
2022/10/22 09:17:28;;;;;;;2.47;1.48;;;14.90;99.90;;;;;;4899791;29;20060;-74
2022/10/22 09:20:09;;;;;;;4.78;1.77;;;15.30;99.90;;;;;;4901913;29;20525;-77
2022/10/22 09:22:49;;;;;;;7.05;2.10;;;14.90;99.90;;;;;;4914347;29;20409;-76
2022/10/22 09:25:26;;;;;;;4.45;1.90;;;15.00;99.90;;;;;;4899631;29;20474;-74
2022/10/22 09:27:57;;;;;;;4.70;1.70;;;15.40;99.90;;;;;;4897085;29;20051;-74
2022/10/22 09:30:25;;;;;;;4.03;1.95;;;15.30;99.90;;;;;;4904665;29;20442;-74
2022/10/22 09:33:00;;;;;;;5.40;2.17;;;15.40;99.90;;;;;;4897847;29;20098;-73
2022/10/22 09:35:25;;;;;;;4.75;1.88;;;15.60;99.90;;;;;;4896626;29;20381;-74
2022/10/22 09:37:54;;;;;;;3.28;1.88;;;15.80;99.90;;;;;;4930158;29;20056;-78
2022/10/22 09:40:21;;;;;;;3.30;1.70;;;15.80;99.90;;;;;;4918260;29;20056;-78
2022/10/22 09:42:47;;;;;;;3.20;1.80;;;15.70;99.90;;;;;;4866461;29;20044;-78
2022/10/22 09:45:22;;;;;;;3.42;1.90;;;15.90;99.90;;;;;;4889194;29;20120;-78
2022/10/22 09:47:48;;;;;;;4.57;2.10;;;15.90;99.90;;;;;;4908891;29;20052;-78
2022/10/22 09:50:29;;;;;;;4.05;1.92;;;15.90;99.90;;;;;;4876458;29;20048;-74
2022/10/22 09:53:18;;;;;;;2.88;1.55;;;15.70;99.90;;;;;;4909572;29;20059;-80
2022/10/22 09:55:49;;;;;;;4.28;1.80;;;15.90;99.90;;;;;;4906539;29;20048;-80
2022/10/22 09:58:17;;;;;;;5.25;1.95;;;15.90;99.90;;;;;;4867033;29;20555;-79
2022/10/22 10:00:46;;;;;;;5.15;1.90;;;15.90;99.90;;;;;;4880768;29;20051;-79
2022/10/22 10:03:22;;;;;;;3.55;2.00;;;15.70;99.90;;;;;;4867085;29;20115;-80
2022/10/22 10:05:52;;;;;;;2.87;1.80;;;15.90;99.90;;;;;;4881603;29;20076;-80
2022/10/22 10:08:17;;;;;;;3.70;1.73;;;15.90;99.90;;;;;;4880551;29;20048;-79
2022/10/22 10:11:07;;;;;;;4.18;1.60;;;15.90;99.90;;;;;;4881656;29;20056;-80
2022/10/22 10:13:56;;;;;;;6.18;2.50;;;15.80;99.90;;;;;;4899217;29;20048;-79
2022/10/22 10:16:43;;;;;;;3.63;2.00;;;15.80;99.90;;;;;;4910316;29;20130;-79
2022/10/22 10:19:18;;;;;;;5.32;2.10;;;15.80;99.90;;;;;;4914675;29;20025;-80
2022/10/22 10:21:53;;;;;;;5.68;2.05;;;16.00;99.90;;;;;;4893372;29;20090;-78
2022/10/22 10:24:22;;;;;;;3.58;1.75;;;15.80;99.90;;;;;;4901070;29;20079;-80
2022/10/22 10:26:57;;;;;;;2.80;1.35;;;15.90;99.90;;;;;;4900829;29;20587;-80
2022/10/22 10:29:44;;;;;;;4.70;1.92;;;16.00;99.90;;;;;;4852031;29;20041;-80
2022/10/22 10:32:35;;;;;;;5.68;2.15;;;16.00;99.90;;;;;;4878711;29;20128;-80
2022/10/22 10:35:27;;;;;;;4.95;1.92;;;15.80;99.90;;;;;;4881400;29;20055;-80
2022/10/22 10:37:52;;;;;;;3.65;2.00;;;16.00;99.90;;;;;;4909267;29;21272;-80
2022/10/22 10:40:21;;;;;;;6.88;2.17;;;16.00;99.90;;;;;;4881880;29;20129;-81
2022/10/22 10:43:05;;;;;;;4.03;1.98;;;15.90;99.90;;;;;;4912842;29;20056;-79
2022/10/22 10:46:25;;;;;;;4.03;2.03;;;15.90;99.90;;;;;;4903499;29;20059;-80
2022/10/22 10:49:14;;;;;;;4.53;2.50;;;15.90;99.90;;;;;;4809423;29;20070;-81
2022/10/22 10:51:44;;;;;;;4.22;1.95;;;15.80;99.90;;;;;;4818432;29;20095;-80
2022/10/22 10:54:16;;;;;;;3.60;1.70;;;15.90;99.90;;;;;;4836807;29;20056;-82
2022/10/22 10:56:59;;;;;;;4.63;2.15;;;15.90;99.90;;;;;;4862051;29;20060;-80
2022/10/22 11:00:10;;;;;;;3.90;2.10;;;15.90;99.90;;;;;;4880259;29;20140;-80
2022/10/22 11:02:56;;;;;;;3.45;1.60;;;15.90;99.90;;;;;;4875722;29;20563;-80
2022/10/22 11:05:41;;;;;;;5.85;2.50;;;15.90;99.90;;;;;;4910984;29;20055;-81
2022/10/22 11:08:24;;;;;;;7.40;2.50;;;15.90;99.90;;;;;;4900484;29;20056;-81
2022/10/22 11:10:54;;;;;;;3.88;2.03;;;15.60;99.90;;;;;;4860830;29;20087;-82
2022/10/22 11:14:01;;;;;;;5.03;2.28;;;15.80;99.90;;;;;;4876779;29;20041;-81
2022/10/22 11:16:54;;;;;;;4.53;2.08;;;15.50;99.90;;;;;;4874016;29;20053;-81
2022/10/22 11:19:31;;;;;;;3.83;1.83;;;15.40;99.90;;;;;;4863039;29;20127;-81
2022/10/22 11:22:12;;;;;;;2.97;1.58;;;15.70;99.90;;;;;;4879483;29;20041;-81
2022/10/22 11:25:03;;;;;;;4.40;1.80;;;15.70;99.90;;;;;;4895014;29;20045;-81
2022/10/22 11:27:47;;;;;;;3.30;1.88;;;15.70;99.90;;;;;;4878357;29;20135;-81
2022/10/22 11:30:16;;;;;;;2.13;1.50;;;15.50;99.90;;;;;;4910843;29;20053;-81
2022/10/22 11:32:46;;;;;;;1.92;1.42;;;16.40;99.90;;;;;;4910929;29;20044;-81
2022/10/22 11:35:18;;;;;;;3.38;1.90;;;16.60;99.90;;;;;;4863770;29;20045;-81
2022/10/22 11:37:46;;;;;;;3.80;2.05;;;17.00;99.90;;;;;;4909051;29;20145;-80
2022/10/22 11:40:21;;;;;;;6.22;2.42;;;16.80;99.90;;;;;;4879139;29;20052;-81
2022/10/22 11:42:51;;;;;;;6.20;2.28;;;16.70;99.90;;;;;;4878621;29;20143;-81
2022/10/22 11:45:17;;;;;;;4.15;2.20;;;16.60;99.90;;;;;;4879264;29;20151;-80
2022/10/22 11:48:18;;;;;;;3.67;2.10;;;16.70;99.90;;;;;;4894945;29;20462;-74
2022/10/22 11:51:30;;;;;;;3.70;2.03;;;16.40;99.90;;;;;;4878822;29;20053;-74
2022/10/22 11:53:57;;;;;;;4.18;2.47;;;16.50;99.90;;;;;;4853891;29;20504;-74
2022/10/22 11:56:37;;;;;;;6.28;2.70;;;16.30;99.90;;;;;;4909950;29;20048;-74
2022/10/22 11:59:07;;;;;;;6.68;2.90;;;16.20;99.90;;;;;;4862305;29;20076;-74
2022/10/22 12:01:41;;;;;;;6.72;2.58;;;15.70;99.90;;;;;;4879215;29;20052;-74
2022/10/22 12:04:38;;;;;;;4.53;2.28;;;15.90;99.90;;;;;;4893949;29;20080;-75
2022/10/22 12:13:23;;;;;;;3.90;2.60;;;16.00;99.90;;;;;;5093538;23;20117;-74
2022/10/22 12:15:55;;;;;;;5.28;3.33;;;15.70;99.90;;;;;;5625104;23;20027;-75
2022/10/22 12:18:26;;;;;;;4.55;2.70;;;15.80;99.90;;;;;;4896277;29;20063;-75
2022/10/22 12:20:54;;;;;;;4.28;2.35;;;16.20;99.90;;;;;;4881797;29;20491;-75
2022/10/22 12:23:25;;;;;;;4.05;1.90;;;15.90;99.90;;;;;;4878693;29;20131;-75
2022/10/22 12:25:51;;;;;;;3.95;2.05;;;16.00;99.90;;;;;;4878709;29;20084;-75
2022/10/22 12:28:18;;;;;;;4.00;2.15;;;16.00;99.90;;;;;;4878524;29;20080;-75
2022/10/22 12:30:43;;;;;;;6.00;2.20;;;16.40;99.90;;;;;;4877746;29;20059;-76
2022/10/22 12:33:19;;;;;;;4.72;1.95;;;16.00;99.90;;;;;;4878407;29;20052;-75
2022/10/22 12:35:46;;;;;;;3.95;2.10;;;15.90;99.90;;;;;;4878365;29;20052;-75
2022/10/22 12:38:13;;;;;;;2.08;1.50;;;15.90;99.90;;;;;;4878330;29;20108;-74
2022/10/22 12:40:40;;;;;;;3.92;2.10;;;16.30;99.90;;;;;;4880071;29;20620;-74
2022/10/22 12:43:36;;;;;;;4.75;2.33;;;16.10;99.90;;;;;;4896517;29;20415;-75
2022/10/22 12:46:01;;;;;;;4.03;2.25;;;16.10;99.90;;;;;;4856777;29;20060;-75
2022/10/22 12:48:32;;;;;;;3.45;1.90;;;15.90;99.90;;;;;;4912819;29;20044;-75
2022/10/22 12:51:00;;;;;;;3.17;1.92;;;16.00;99.90;;;;;;4900509;29;20500;-75
2022/10/22 12:53:33;;;;;;;4.82;1.95;;;15.80;99.90;;;;;;4881645;29;20111;-75
2022/10/22 12:56:02;;;;;;;4.30;2.00;;;15.90;99.90;;;;;;4881675;29;20048;-74
2022/10/22 12:58:38;;;;;;;2.95;1.75;;;15.60;99.90;;;;;;4881867;29;20066;-81
2022/10/22 13:01:04;;;;;;;3.80;2.05;;;15.50;99.90;;;;;;4881384;29;20056;-81
2022/10/22 13:03:34;;;;;;;;;;;15.70;99.90;;;;;;4882549;29;20052;-82
2022/10/22 13:06:18;;;;;;;4.32;1.90;;;15.70;99.90;;;;;;4913377;29;20463;-82
2022/10/22 13:08:56;;;;;;;5.55;2.20;;;16.30;99.90;;;;;;4898206;29;20040;-81
2022/10/22 13:11:21;;;;;;;3.42;1.60;;;16.10;99.90;;;;;;4865622;29;20052;-75
2022/10/22 13:13:47;;;;;;;4.72;1.60;;;16.70;99.90;;;;;;4880974;29;20048;-74
2022/10/22 13:16:23;;;;;;;3.42;1.67;;;16.70;99.90;;;;;;4883591;29;20054;-75
2022/10/22 13:18:50;;;;;;;4.70;1.50;;;16.70;99.90;;;;;;4896849;29;20212;-75
2022/10/22 13:21:36;;;;;;;2.20;1.30;;;17.40;99.90;;;;;;4880166;29;20124;-75
2022/10/22 13:24:23;;;;;;;3.30;1.67;;;17.40;99.90;;;;;;4896387;29;20056;-74
2022/10/22 13:26:53;;;;;;;3.92;1.60;;;17.90;99.90;;;;;;4880729;29;20056;-74
2022/10/22 13:29:21;;;;;;;5.85;1.75;;;17.80;99.90;;;;;;4895163;29;20108;-74
2022/10/22 13:31:52;;;;;;;2.80;1.50;;;17.70;99.90;;;;;;4911230;29;20052;-75
2022/10/22 13:34:23;;;;;;;2.88;1.23;;;18.00;99.90;;;;;;4896571;29;20048;-75
2022/10/22 13:36:50;;;;;;;2.05;0.90;;;18.10;99.90;;;;;;4896271;29;20052;-75
2022/10/22 13:39:23;;;;;;;2.42;0.90;;;18.40;99.90;;;;;;4864487;29;20136;-75
2022/10/22 13:41:50;;;;;;;4.10;1.05;;;18.30;99.90;;;;;;4880631;29;20540;-74
2022/10/22 13:44:17;;;;;;;3.92;0.90;;;18.10;99.90;;;;;;4896119;29;20084;-74
2022/10/22 13:46:43;;;;;;;1.92;0.80;;;17.90;99.90;;;;;;4896060;29;20056;-74
2022/10/22 13:49:18;;;;;;;2.20;0.90;;;17.70;99.90;;;;;;4895087;29;20052;-74
2022/10/22 13:51:43;;;;;;;4.22;0.90;;;17.40;99.90;;;;;;4896144;29;20110;-74
2022/10/22 13:54:13;;;;;;;;;;;17.20;99.90;;;;;;4897941;29;20040;-74
2022/10/22 13:56:38;;;;;;;1.63;0.73;;;17.10;99.90;;;;;;4896183;29;19923;-74
2022/10/22 13:59:04;;;;;;;;;;;16.90;99.90;;;;;;4896050;29;20546;-74
2022/10/22 14:01:30;;;;;;;2.92;1.00;;;16.70;99.90;;;;;;4911551;29;20342;-74
2022/10/22 14:03:58;;;;;;;4.63;1.13;;;16.90;99.90;;;;;;4896150;29;20052;-74
2022/10/22 14:06:27;;;;;;;3.53;1.15;;;16.70;99.90;;;;;;4895723;29;20492;-74
2022/10/22 14:08:59;;;;;;;2.63;0.90;;;16.70;99.90;;;;;;4894897;29;20523;-75
2022/10/22 14:11:31;;;;;;;2.17;0.80;;;16.60;99.90;;;;;;4895769;29;20127;-74
2022/10/22 14:13:58;;;;;;;2.25;0.70;;;16.60;99.90;;;;;;4895486;29;20048;-74
2022/10/22 14:16:26;;;;;;;3.10;0.80;;;16.40;99.90;;;;;;4894639;29;20495;-74
2022/10/22 14:18:53;;;;;;;1.98;0.70;;;16.70;99.90;;;;;;4879176;29;20056;-74
2022/10/22 14:21:19;;;;;;;1.98;0.77;;;16.60;99.90;;;;;;4879790;29;20518;-74
2022/10/22 14:23:45;;;;;;;;;;;17.10;99.90;;;;;;4895284;29;20059;-74
2022/10/22 14:26:22;;;;;;;4.70;1.00;;;17.30;99.90;;;;;;4895868;29;19923;-73
2022/10/22 14:28:48;;;;;;;3.83;1.00;;;17.40;99.90;;;;;;4878586;29;20044;-74
2022/10/22 14:31:14;;;;;;;;;;;17.40;99.90;;;;;;4897493;29;20049;-75
2022/10/22 14:33:40;;;;;;;4.05;1.33;;;17.50;99.90;;;;;;4895767;29;19930;-74
2022/10/22 14:36:06;;;;;;;2.53;0.60;;;17.40;99.90;;;;;;4879873;29;20131;-74
2022/10/22 14:38:32;;;;;;;;;;;17.40;99.90;;;;;;4879314;29;20044;-74
2022/10/22 14:40:59;;;;;;;2.38;0.70;;;17.40;99.90;;;;;;4879605;29;19927;-74
2022/10/22 14:43:27;;;;;;;1.73;0.50;;;17.20;99.90;;;;;;4900521;29;20376;-81
2022/10/22 14:45:53;;;;;;;1.67;0.60;;;17.00;99.90;;;;;;4899455;29;20049;-82
2022/10/22 14:48:19;;;;;;;;;;;16.80;99.90;;;;;;4898521;29;20052;-81
2022/10/22 14:50:46;;;;;;;1.60;0.40;;;16.70;99.90;;;;;;4896024;29;19948;-81
2022/10/22 14:53:13;;;;;;;2.72;0.68;;;16.50;99.90;;;;;;4883445;29;20128;-81
2022/10/22 14:55:40;;;;;;;2.60;0.63;;;16.50;99.90;;;;;;4898333;29;20131;-80
2022/10/22 14:58:06;;;;;;;1.50;0.50;;;16.30;99.90;;;;;;4898486;29;20135;-82
2022/10/22 15:00:33;;;;;;;;;;;16.30;99.90;;;;;;4897386;29;20040;-81
2022/10/22 15:02:59;;;;;;;3.05;0.77;;;16.20;99.90;;;;;;4894839;29;19927;-80
2022/10/22 15:05:24;;;;;;;4.40;0.75;;;16.20;99.90;;;;;;4896370;29;20067;-81
2022/10/22 15:07:50;;;;;;;2.22;0.65;;;16.10;99.90;;;;;;4896297;29;20132;-81
2022/10/22 15:10:16;;;;;;;3.03;0.70;;;16.10;99.90;;;;;;4879803;29;20091;-82
2022/10/22 15:12:42;;;;;;;3.70;0.88;;;16.10;99.90;;;;;;4891009;29;20406;-81
2022/10/22 15:15:08;;;;;;;2.10;0.60;;;16.00;99.90;;;;;;4874316;29;20044;-80
2022/10/22 15:17:33;;;;;;;2.22;0.60;;;16.10;99.90;;;;;;4878613;29;20056;-80
2022/10/22 15:20:02;;;;;;;1.75;0.60;;;15.90;99.90;;;;;;4892732;29;20473;-82
2022/10/22 15:22:30;;;;;;;2.67;0.80;;;15.90;99.90;;;;;;4877904;29;20112;-80
2022/10/22 15:24:57;;;;;;;2.22;0.85;;;15.90;99.90;;;;;;4877156;29;20049;-80
2022/10/22 15:27:24;;;;;;;1.88;0.60;;;15.90;99.90;;;;;;4895267;29;20064;-81
2022/10/22 15:29:49;;;;;;;2.63;0.80;;;15.90;99.90;;;;;;4879453;29;20492;-81
2022/10/22 15:32:15;;;;;;;2.08;0.52;;;15.90;99.90;;;;;;4893605;29;20052;-80
2022/10/22 15:34:41;;;;;;;4.35;1.15;;;15.80;99.90;;;;;;4877895;29;20138;-80
2022/10/22 15:37:10;;;;;;;4.25;0.88;;;15.80;99.90;;;;;;4894438;29;20400;-79
2022/10/22 15:39:39;;;;;;;6.30;0.88;;;15.70;99.90;;;;;;4891764;29;20055;-79
2022/10/22 15:42:05;;;;;;;3.55;0.82;;;15.60;99.90;;;;;;4895898;29;20172;-80
2022/10/22 15:44:31;;;;;;;3.55;0.88;;;15.60;99.90;;;;;;4895344;29;20139;-78
2022/10/22 15:46:58;;;;;;;4.90;1.17;;;15.40;99.90;;;;;;4876091;29;20044;-80
2022/10/22 15:49:25;;;;;;;2.78;0.60;;;15.30;99.90;;;;;;4893560;29;20048;-80
2022/10/22 15:51:52;;;;;;;4.95;1.10;;;15.30;99.90;;;;;;4890295;29;20159;-80
2022/10/22 15:54:21;;;;;;;1.95;0.70;;;15.10;99.90;;;;;;4891896;29;20107;-81
2022/10/22 15:56:47;;;;;;;4.53;0.73;;;15.00;99.90;;;;;;4894327;29;20049;-80